createdAt,value
2018-01-04T00:00:53.622Z,5.90
2018-01-04T00:03:21.284Z,6.40
2018-01-04T00:05:49.167Z,5.53
2018-01-04T00:08:16.803Z,5.90
2018-01-04T00:10:44.439Z,6.00
2018-01-04T00:13:12.212Z,5.47
2018-01-04T00:15:39.938Z,5.40
2018-01-04T00:18:07.606Z,5.13
2018-01-04T00:20:35.196Z,5.93
2018-01-04T00:23:03.126Z,6.70
2018-01-04T00:25:31.013Z,6.40
2018-01-04T00:27:58.814Z,6.40
2018-01-04T00:30:26.414Z,8.70
2018-01-04T00:32:54.030Z,5.33
2018-01-04T00:35:21.675Z,6.27
2018-01-04T00:37:49.289Z,5.13
2018-01-04T00:40:16.939Z,5.40
2018-01-04T00:42:44.571Z,6.50
2018-01-04T00:45:12.172Z,6.50
2018-01-04T00:47:39.842Z,6.17
2018-01-04T00:50:07.545Z,6.40
2018-01-04T00:52:35.436Z,7.27
2018-01-04T00:55:03.144Z,5.23
2018-01-04T00:57:31.104Z,6.17
2018-01-04T00:59:58.793Z,7.27
2018-01-04T01:02:26.472Z,6.17
2018-01-04T01:04:54.355Z,7.70
2018-01-04T01:07:21.945Z,5.73
2018-01-04T01:09:49.649Z,5.33
2018-01-04T01:12:17.280Z,6.57
2018-01-04T01:14:45.091Z,7.53
2018-01-04T01:17:12.759Z,5.90
2018-01-04T01:19:40.514Z,7.40
2018-01-04T01:22:08.166Z,8.33
2018-01-04T01:24:35.848Z,7.23
2018-01-04T01:27:03.456Z,7.33
2018-01-04T01:29:31.125Z,6.77
2018-01-04T01:31:58.787Z,5.90
2018-01-04T01:34:26.547Z,7.60
2018-01-04T01:36:54.376Z,7.70
2018-01-04T01:39:22.098Z,6.00
2018-01-04T01:41:49.748Z,5.47
2018-01-04T01:44:18.395Z,6.93
2018-01-04T01:46:46.464Z,7.87
2018-01-04T01:49:16.267Z,6.03
2018-01-04T01:51:43.977Z,6.13
2018-01-04T01:54:11.727Z,5.27
2018-01-04T01:56:39.464Z,6.90
2018-01-04T01:59:07.105Z,5.17
2018-01-04T02:01:35.069Z,7.23
2018-01-04T02:04:02.817Z,4.97
2018-01-04T02:06:30.617Z,5.13
2018-01-04T02:08:58.362Z,6.30
2018-01-04T02:11:29.540Z,6.50
2018-01-04T02:13:57.273Z,6.63
2018-01-04T02:16:25.145Z,6.37
2018-01-04T02:19:04.488Z,5.63
2018-01-04T02:21:44.016Z,4.97
2018-01-04T02:24:23.267Z,6.40
2018-01-04T02:27:04.250Z,7.37
2018-01-04T02:29:43.509Z,7.10
2018-01-04T02:32:22.868Z,5.77
2018-01-04T02:35:02.257Z,5.70
2018-01-04T02:37:41.694Z,5.23
2018-01-04T02:43:36.934Z,4.93
2018-01-04T02:46:16.290Z,7.40
2018-01-04T02:48:44.050Z,5.80
2018-01-04T02:51:11.832Z,6.10
2018-01-04T02:53:39.688Z,6.00
2018-01-04T02:56:07.286Z,7.53
2018-01-04T02:58:35.011Z,6.37
2018-01-04T03:01:02.727Z,6.50
2018-01-04T03:03:30.404Z,6.23
2018-01-04T03:05:58.109Z,4.87
2018-01-04T03:08:25.748Z,6.90
2018-01-04T03:10:53.376Z,7.70
2018-01-04T03:13:21.072Z,6.77
2018-01-04T03:15:48.924Z,5.87
2018-01-04T03:18:16.668Z,9.53
2018-01-04T03:20:44.502Z,7.73
2018-01-04T03:23:17.960Z,6.10
2018-01-04T03:25:54.928Z,6.57
2018-01-04T03:28:28.226Z,5.23
2018-01-04T03:31:01.506Z,5.90
2018-01-04T03:36:42.549Z,5.53
2018-01-04T03:39:15.922Z,5.70
2018-01-04T03:41:48.992Z,6.87
2018-01-04T03:44:22.592Z,6.57
2018-01-04T03:46:56.000Z,5.97
2018-01-04T03:49:29.688Z,7.67
2018-01-04T03:52:03.049Z,9.73
2018-01-04T03:54:36.690Z,5.97
2018-01-04T04:00:16.462Z,6.87
2018-01-04T04:02:49.701Z,5.60
2018-01-04T04:05:23.290Z,6.10
2018-01-04T04:07:51.532Z,6.37
2018-01-04T04:10:19.214Z,7.07
2018-01-04T04:12:47.171Z,6.07
2018-01-04T04:15:15.031Z,7.10
2018-01-04T04:17:42.999Z,8.20
2018-01-04T04:20:10.612Z,7.07
2018-01-04T04:22:38.280Z,6.73
2018-01-04T04:25:07.438Z,6.30
2018-01-04T04:27:35.098Z,5.63
2018-01-04T04:30:02.935Z,7.20
2018-01-04T04:32:30.906Z,6.93
2018-01-04T04:34:58.894Z,6.33
2018-01-04T04:37:26.512Z,7.73
2018-01-04T04:39:54.256Z,4.57
2018-01-04T04:42:21.919Z,6.17
2018-01-04T04:44:49.832Z,6.33
2018-01-04T04:47:17.541Z,6.10
2018-01-04T04:49:45.202Z,5.80
2018-01-04T04:52:13.504Z,6.80
2018-01-04T04:54:41.527Z,6.83
2018-01-04T04:57:09.217Z,4.97
2018-01-04T04:59:36.949Z,6.83
2018-01-04T05:02:04.551Z,6.10
2018-01-04T05:04:32.574Z,5.73
2018-01-04T05:07:00.754Z,6.23
2018-01-04T05:09:28.430Z,4.90
2018-01-04T05:11:56.018Z,5.97
2018-01-04T05:14:23.703Z,6.17
2018-01-04T05:16:51.336Z,5.93
2018-01-04T05:19:18.914Z,5.93
2018-01-04T05:21:46.540Z,7.30
2018-01-04T05:24:14.125Z,5.30
2018-01-04T05:26:41.794Z,6.10
2018-01-04T05:29:09.400Z,6.40
2018-01-04T05:31:37.022Z,6.47
2018-01-04T05:34:04.654Z,5.57
2018-01-04T05:36:32.543Z,6.10
2018-01-04T05:39:00.460Z,7.10
2018-01-04T05:41:28.299Z,5.80
2018-01-04T05:43:55.932Z,7.87
2018-01-04T05:46:23.512Z,6.63
2018-01-04T05:48:51.347Z,6.90
2018-01-04T05:51:19.086Z,5.90
2018-01-04T05:53:46.729Z,5.43
2018-01-04T05:56:14.309Z,5.10
2018-01-04T05:58:42.187Z,9.53
2018-01-04T06:01:09.807Z,6.70
2018-01-04T06:03:37.425Z,5.60
2018-01-04T06:06:05.045Z,6.30
2018-01-04T06:08:32.725Z,6.20
2018-01-04T06:11:00.425Z,7.87
2018-01-04T06:13:28.053Z,6.70
2018-01-04T06:15:56.826Z,5.83
2018-01-04T06:18:24.482Z,5.73
2018-01-04T06:20:52.224Z,4.47
2018-01-04T06:23:20.001Z,6.53
2018-01-04T06:25:47.987Z,6.53
2018-01-04T06:28:15.596Z,6.33
2018-01-04T06:30:43.307Z,6.73
2018-01-04T06:33:10.949Z,6.60
2018-01-04T06:35:38.610Z,6.47
2018-01-04T06:38:06.278Z,7.53
2018-01-04T06:40:33.979Z,7.10
2018-01-04T06:43:01.614Z,5.90
2018-01-04T06:45:29.494Z,4.80
2018-01-04T06:47:57.154Z,5.87
2018-01-04T06:50:25.137Z,6.20
2018-01-04T06:52:52.814Z,7.97
2018-01-04T06:55:25.763Z,6.77
2018-01-04T06:57:53.407Z,7.27
2018-01-04T07:00:20.993Z,7.73
2018-01-04T07:02:48.854Z,5.73
2018-01-04T07:05:16.518Z,6.13
2018-01-04T07:07:44.151Z,6.17
2018-01-04T07:10:11.900Z,6.17
2018-01-04T07:12:39.538Z,7.67
2018-01-04T07:15:07.502Z,6.00
2018-01-04T07:17:35.275Z,5.73
2018-01-04T07:20:02.919Z,6.87
2018-01-04T07:22:30.582Z,6.00
2018-01-04T07:24:58.247Z,5.20
2018-01-04T07:27:26.427Z,5.83
2018-01-04T07:29:54.060Z,7.93
2018-01-04T07:32:21.685Z,6.37
2018-01-04T07:34:49.727Z,6.57
2018-01-04T07:37:17.365Z,8.70
2018-01-04T07:39:44.960Z,6.70
2018-01-04T07:42:12.669Z,5.90
2018-01-04T07:44:40.289Z,6.30
2018-01-04T07:47:07.897Z,5.97
2018-01-04T07:49:35.636Z,7.87
2018-01-04T07:52:03.555Z,7.93
2018-01-04T07:54:31.535Z,5.83
2018-01-04T07:56:59.244Z,8.00
2018-01-04T07:59:26.861Z,5.83
2018-01-04T08:01:54.535Z,6.67
2018-01-04T08:04:22.154Z,7.70
2018-01-04T08:06:49.903Z,7.07
2018-01-04T08:09:17.528Z,8.03
2018-01-04T08:11:45.170Z,6.17
2018-01-04T08:14:12.852Z,7.07
2018-01-04T08:16:40.791Z,5.60
2018-01-04T08:19:08.454Z,7.70
2018-01-04T08:21:36.108Z,6.90
2018-01-04T08:24:04.105Z,5.93
2018-01-04T08:26:31.721Z,8.33
2018-01-04T08:28:59.337Z,7.00
2018-01-04T08:31:27.007Z,7.30
2018-01-04T08:33:54.620Z,6.40
2018-01-04T08:36:22.255Z,8.00
2018-01-04T08:38:50.071Z,7.17
2018-01-04T08:41:17.631Z,5.67
2018-01-04T08:43:45.250Z,5.33
2018-01-04T08:46:12.860Z,7.27
2018-01-04T08:48:40.545Z,7.27
2018-01-04T08:51:08.211Z,6.27
2018-01-04T08:53:35.904Z,6.97
2018-01-04T08:56:03.804Z,8.00
2018-01-04T08:58:31.473Z,6.60
2018-01-04T09:00:59.376Z,9.23
2018-01-04T09:03:26.963Z,9.40
2018-01-04T09:05:54.599Z,6.50
2018-01-04T09:08:22.266Z,6.60
2018-01-04T09:10:50.276Z,6.20
2018-01-04T09:13:17.855Z,5.80
2018-01-04T09:15:45.518Z,6.33
2018-01-04T09:18:13.380Z,6.07
2018-01-04T09:20:41.011Z,7.37
2018-01-04T09:23:09.007Z,7.10
2018-01-04T09:25:36.595Z,7.30
2018-01-04T09:28:04.229Z,8.20
2018-01-04T09:30:32.193Z,7.97
2018-01-04T09:32:59.830Z,7.10
2018-01-04T09:35:27.454Z,7.93
2018-01-04T09:37:55.233Z,6.87
2018-01-04T09:40:22.901Z,8.27
2018-01-04T09:42:50.814Z,7.47
2018-01-04T09:45:18.518Z,7.13
2018-01-04T09:47:46.110Z,8.17
2018-01-04T09:50:14.952Z,8.80
2018-01-04T09:52:44.007Z,8.10
2018-01-04T09:55:11.688Z,7.97
2018-01-04T09:57:39.342Z,7.53
2018-01-04T10:00:07.242Z,7.20
2018-01-04T10:02:35.111Z,7.80
2018-01-04T10:05:02.740Z,7.00
2018-01-04T10:07:30.375Z,6.83
2018-01-04T10:09:58.480Z,7.70
2018-01-04T10:12:26.346Z,8.57
2018-01-04T10:14:54.157Z,8.30
2018-01-04T10:17:21.775Z,7.33
2018-01-04T10:19:49.411Z,10.03
2018-01-04T10:22:18.164Z,8.67
2018-01-04T10:24:45.755Z,7.47
2018-01-04T10:27:13.434Z,9.20
2018-01-04T10:29:41.040Z,9.93
2018-01-04T10:32:08.648Z,8.90
2018-01-04T10:34:36.731Z,10.67
2018-01-04T10:37:04.611Z,8.20
2018-01-04T10:39:32.256Z,9.27
2018-01-04T10:41:59.899Z,8.23
2018-01-04T10:44:27.790Z,10.50
2018-01-04T10:46:55.403Z,11.93
2018-01-04T10:49:23.082Z,8.90
2018-01-04T10:51:50.721Z,9.90
2018-01-04T10:54:18.341Z,9.07
2018-01-04T10:56:46.317Z,9.40
2018-01-04T10:59:14.276Z,13.13
2018-01-04T11:01:42.361Z,10.40
2018-01-04T11:04:09.953Z,8.50
2018-01-04T11:06:37.617Z,10.83
2018-01-04T11:09:05.307Z,10.40
2018-01-04T11:11:32.927Z,9.37
2018-01-04T11:14:00.615Z,10.27
2018-01-04T11:16:28.242Z,11.13
2018-01-04T11:18:56.192Z,11.20
2018-01-04T11:21:24.056Z,10.67
2018-01-04T11:23:51.650Z,10.80
2018-01-04T11:26:19.307Z,11.13
2018-01-04T11:28:46.968Z,13.20
2018-01-04T11:31:14.542Z,13.37
2018-01-04T11:33:42.572Z,11.60
2018-01-04T11:36:10.204Z,12.47
2018-01-04T11:38:37.770Z,12.53
2018-01-04T11:41:05.660Z,14.00
2018-01-04T11:43:33.488Z,13.90
2018-01-04T11:46:01.141Z,14.30
2018-01-04T11:48:28.824Z,11.50
2018-01-04T11:50:56.466Z,13.23
2018-01-04T11:53:24.218Z,13.20
2018-01-04T11:55:51.862Z,13.50
2018-01-04T11:58:19.697Z,15.17
2018-01-04T12:00:47.313Z,14.63
2018-01-04T12:03:14.915Z,15.00
2018-01-04T12:05:43.512Z,16.47
2018-01-04T12:08:11.072Z,13.67
2018-01-04T12:10:38.746Z,12.53
2018-01-04T12:13:06.620Z,13.30
2018-01-04T12:15:34.247Z,12.87
2018-01-04T12:18:01.850Z,14.23
2018-01-04T12:20:29.468Z,16.33
2018-01-04T12:22:57.087Z,15.70
2018-01-04T12:25:24.773Z,14.83
2018-01-04T12:27:52.375Z,16.97
2018-01-04T12:30:20.025Z,16.47
2018-01-04T12:32:47.599Z,14.70
2018-01-04T12:35:15.585Z,16.10
2018-01-04T12:37:43.558Z,15.90
2018-01-04T12:40:11.159Z,15.30
2018-01-04T12:42:39.058Z,18.53
2018-01-04T12:45:06.882Z,21.37
2018-01-04T12:47:34.483Z,20.30
2018-01-04T12:50:02.671Z,18.10
2018-01-04T12:52:30.748Z,16.50
2018-01-04T12:54:58.417Z,15.33
2018-01-04T12:57:25.981Z,16.83
2018-01-04T12:59:53.621Z,15.43
2018-01-04T13:02:21.587Z,15.63
2018-01-04T13:04:49.260Z,15.20
2018-01-04T13:07:16.937Z,12.53
2018-01-04T13:09:44.613Z,11.90
2018-01-04T13:12:12.655Z,13.87
2018-01-04T13:14:40.304Z,13.70
2018-01-04T13:17:08.279Z,12.73
2018-01-04T13:19:36.652Z,12.53
2018-01-04T13:22:04.393Z,12.50
2018-01-04T13:24:32.011Z,11.63
2018-01-04T13:26:59.587Z,11.13
2018-01-04T13:29:27.610Z,10.70
2018-01-04T13:31:55.404Z,10.90
2018-01-04T13:34:23.056Z,13.90
2018-01-04T13:36:50.787Z,13.03
2018-01-04T13:39:18.473Z,15.97
2018-01-04T13:41:46.202Z,15.80
2018-01-04T13:44:14.070Z,13.87
2018-01-04T13:46:41.673Z,12.63
2018-01-04T13:49:09.297Z,11.40
2018-01-04T13:51:37.143Z,15.10
2018-01-04T13:54:05.056Z,12.37
2018-01-04T13:56:32.752Z,12.00
2018-01-04T13:59:00.354Z,12.80
2018-01-04T14:01:28.386Z,11.87
2018-01-04T14:04:10.908Z,11.97
2018-01-04T14:06:43.503Z,11.77
2018-01-04T14:09:11.855Z,11.53
2018-01-04T14:11:39.550Z,14.53
2018-01-04T14:14:07.448Z,13.20
2018-01-04T14:16:35.052Z,11.97
2018-01-04T14:19:02.719Z,11.57
2018-01-04T14:21:39.666Z,12.07
2018-01-04T14:24:07.271Z,13.00
2018-01-04T14:26:35.095Z,11.10
2018-01-04T14:29:02.738Z,11.63
2018-01-04T14:31:30.616Z,13.30
2018-01-04T14:33:58.240Z,12.40
2018-01-04T14:36:25.850Z,12.23
2018-01-04T14:38:53.442Z,12.80
2018-01-04T14:41:21.100Z,12.60
2018-01-04T14:43:48.761Z,10.83
2018-01-04T14:46:16.470Z,13.93
2018-01-04T14:48:44.260Z,11.27
2018-01-04T14:51:12.214Z,10.90
2018-01-04T14:53:39.804Z,13.50
2018-01-04T14:56:07.430Z,11.27
2018-01-04T14:58:35.039Z,12.80
2018-01-04T15:01:02.603Z,13.40
2018-01-04T15:03:30.215Z,11.47
2018-01-04T15:05:57.796Z,10.07
2018-01-04T15:08:25.391Z,10.53
2018-01-04T15:10:53.068Z,10.20
2018-01-04T15:13:20.855Z,10.63
2018-01-04T15:15:48.673Z,10.80
2018-01-04T15:18:16.618Z,9.27
2018-01-04T15:20:44.478Z,7.57
2018-01-04T15:23:12.346Z,7.83
2018-01-04T15:25:40.072Z,8.00
2018-01-04T15:28:08.098Z,8.20
2018-01-04T15:30:36.751Z,7.73
2018-01-04T15:33:04.748Z,6.53
2018-01-04T15:35:32.596Z,6.13
2018-01-04T15:38:00.269Z,6.20
2018-01-04T15:40:27.971Z,6.73
2018-01-04T15:42:55.632Z,6.40
2018-01-04T15:45:27.574Z,7.40
2018-01-04T15:47:55.632Z,6.40
2018-01-04T15:50:23.291Z,4.57
2018-01-04T15:52:54.553Z,5.00
2018-01-04T15:55:22.274Z,3.70
2018-01-04T15:57:50.009Z,4.10
2018-01-04T16:00:24.579Z,3.80
2018-01-04T16:02:57.142Z,4.77
2018-01-04T16:05:26.905Z,4.30
2018-01-04T16:07:56.756Z,4.30
2018-01-04T16:10:30.097Z,4.97
2018-01-04T16:12:59.184Z,4.03
2018-01-04T16:15:29.745Z,5.30
2018-01-04T16:17:57.472Z,5.53
2018-01-04T16:20:25.450Z,5.07
2018-01-04T16:22:53.386Z,5.67
2018-01-04T16:28:07.690Z,5.30
2018-01-04T16:30:35.600Z,5.83
2018-01-04T16:33:09.328Z,5.93
2018-01-04T16:35:40.039Z,6.20
2018-01-04T16:38:07.926Z,6.00
2018-01-04T16:40:38.782Z,6.33
2018-01-04T16:43:06.681Z,6.10
2018-01-04T16:45:37.505Z,7.47
2018-01-04T16:48:08.843Z,8.23
2018-01-04T16:50:37.672Z,9.57
2018-01-04T16:53:07.053Z,8.10
2018-01-04T16:55:34.860Z,10.30
2018-01-04T17:00:36.798Z,10.57
2018-01-04T17:03:07.190Z,11.73
2018-01-04T17:05:37.882Z,11.17
2018-01-04T17:08:05.934Z,12.77
2018-01-04T17:10:40.027Z,13.77
2018-01-04T17:13:07.761Z,14.60
2018-01-04T17:15:39.119Z,15.73
2018-01-04T17:18:06.763Z,14.47
2018-01-04T17:20:34.512Z,19.47
2018-01-04T17:23:03.693Z,18.80
2018-01-04T17:25:31.616Z,21.40
2018-01-04T17:27:59.857Z,19.80
2018-01-04T17:30:32.134Z,24.07
2018-01-04T17:32:59.863Z,22.53
2018-01-04T17:35:27.544Z,20.07
2018-01-04T17:38:00.082Z,20.97
2018-01-04T17:40:27.791Z,22.83
2018-01-04T17:42:56.618Z,20.70
2018-01-04T17:45:24.609Z,21.80
2018-01-04T17:47:53.679Z,20.63
2018-01-04T17:53:04.539Z,26.70
2018-01-04T17:55:38.636Z,71.60
2018-01-04T17:58:08.269Z,30.70
2018-01-04T18:00:36.698Z,29.50
2018-01-04T18:03:06.176Z,31.47
2018-01-04T18:05:34.935Z,42.60
2018-01-04T18:08:06.141Z,29.40
2018-01-04T18:10:33.852Z,25.97
2018-01-04T18:13:02.417Z,24.57
2018-01-04T18:15:33.642Z,26.60
2018-01-04T18:18:02.032Z,27.10
2018-01-04T18:20:30.351Z,29.40
2018-01-04T18:22:58.252Z,32.63
2018-01-04T18:25:26.818Z,29.23
2018-01-04T18:27:54.816Z,31.17
2018-01-04T18:30:22.836Z,30.13
2018-01-04T18:32:53.437Z,27.43
2018-01-04T18:35:21.143Z,27.40
2018-01-04T18:37:48.886Z,22.30
2018-01-04T18:40:16.764Z,22.93
2018-01-04T18:42:44.780Z,22.73
2018-01-04T18:45:12.517Z,21.60
2018-01-04T18:47:40.430Z,23.10
2018-01-04T18:50:08.585Z,24.20
2018-01-04T18:52:36.416Z,18.30
2018-01-04T18:55:04.224Z,20.57
2018-01-04T18:57:32.081Z,19.10
2018-01-04T18:59:59.756Z,16.00
2018-01-04T19:02:31.901Z,17.00
2018-01-04T19:05:00.670Z,18.00
2018-01-04T19:07:28.483Z,18.07
2018-01-04T19:09:57.145Z,18.20
2018-01-04T19:12:24.813Z,14.37
2018-01-04T19:14:52.578Z,11.20
2018-01-04T19:17:20.390Z,7.63
2018-01-04T19:19:48.190Z,8.00
2018-01-04T19:22:16.121Z,10.80
2018-01-04T19:24:43.855Z,5.33
2018-01-04T19:27:11.591Z,6.63
2018-01-04T19:29:39.386Z,6.63
2018-01-04T19:32:08.463Z,5.57
2018-01-04T19:34:37.102Z,6.70
2018-01-04T19:37:05.013Z,6.40
2018-01-04T19:39:40.473Z,7.53
2018-01-04T19:42:08.225Z,6.30
2018-01-04T19:44:44.364Z,8.87
2018-01-04T19:47:15.155Z,5.70
2018-01-04T19:49:42.913Z,6.40
2018-01-04T19:52:10.627Z,6.20
2018-01-04T19:54:39.013Z,7.63
2018-01-04T19:57:13.409Z,6.40
2018-01-04T19:59:41.344Z,5.57
2018-01-04T20:02:09.044Z,6.60
2018-01-04T20:04:48.636Z,5.50
2018-01-04T20:07:17.537Z,6.87
2018-01-04T20:09:45.698Z,6.23
2018-01-04T20:12:16.366Z,6.07
2018-01-04T20:14:44.660Z,6.07
2018-01-04T20:17:13.318Z,5.73
2018-01-04T20:19:42.161Z,5.70
2018-01-04T20:22:10.326Z,5.17
2018-01-04T20:24:42.114Z,6.30
2018-01-04T20:27:11.848Z,3.77
2018-01-04T20:29:46.047Z,6.17
2018-01-04T20:32:21.870Z,5.40
2018-01-04T20:35:02.821Z,5.60
2018-01-04T20:37:31.553Z,3.80
2018-01-04T20:40:01.366Z,4.70
2018-01-04T20:42:31.900Z,4.17
2018-01-04T20:45:09.068Z,3.33
2018-01-04T20:47:38.352Z,2.60
2018-01-04T20:50:14.228Z,3.60
2018-01-04T20:52:41.967Z,5.90
2018-01-04T20:55:10.259Z,4.77
2018-01-04T20:57:41.625Z,4.10
2018-01-04T21:00:13.985Z,3.33
2018-01-04T21:02:47.717Z,4.10
2018-01-04T21:05:23.334Z,3.60
2018-01-04T21:07:51.923Z,3.00
2018-01-04T21:10:21.347Z,4.20
2018-01-04T21:12:51.741Z,3.00
2018-01-04T21:15:19.426Z,2.77
2018-01-04T21:17:50.902Z,2.40
2018-01-04T21:20:20.239Z,2.90
2018-01-04T21:22:47.971Z,2.53
2018-01-04T21:25:17.728Z,2.33
2018-01-04T21:27:48.775Z,1.83
2018-01-04T21:30:19.539Z,2.40
2018-01-04T21:32:52.166Z,2.40
2018-01-04T21:35:19.859Z,2.60
2018-01-04T21:37:50.008Z,2.13
2018-01-04T21:40:17.943Z,2.53
2018-01-04T21:42:45.671Z,2.30
2018-01-04T21:45:13.683Z,2.43
2018-01-04T21:47:47.613Z,2.40
2018-01-04T21:50:15.948Z,2.07
2018-01-04T21:55:36.205Z,1.97
2018-01-04T21:58:04.409Z,2.40
2018-01-04T22:00:32.102Z,2.67
2018-01-04T22:02:59.785Z,1.73
2018-01-04T22:08:35.185Z,1.67
2018-01-04T22:11:04.279Z,2.67
2018-01-04T22:13:32.152Z,2.23
2018-01-04T22:16:00.469Z,1.20
2018-01-04T22:18:28.210Z,2.93
2018-01-04T22:20:56.430Z,2.00
2018-01-04T22:23:25.450Z,1.50
2018-01-04T22:25:53.609Z,1.83
2018-01-04T22:28:21.337Z,1.33
2018-01-04T22:30:55.379Z,2.20
2018-01-04T22:33:23.438Z,1.40
2018-01-04T22:36:00.074Z,2.10
2018-01-04T22:38:28.077Z,1.83
2018-01-04T22:41:00.693Z,1.57
2018-01-04T22:43:28.402Z,1.20
2018-01-04T22:45:57.130Z,0.90
2018-01-04T22:48:30.119Z,1.60
2018-01-04T22:50:57.770Z,1.20
2018-01-04T22:53:26.076Z,1.27
2018-01-04T22:55:53.706Z,1.33
2018-01-04T22:58:21.794Z,0.97
2018-01-04T23:01:02.009Z,1.50
2018-01-04T23:03:30.014Z,1.80
2018-01-04T23:05:57.856Z,1.10
2018-01-04T23:08:27.872Z,1.63
2018-01-04T23:10:56.826Z,2.13
2018-01-04T23:16:06.463Z,1.60
2018-01-04T23:18:34.163Z,1.50
2018-01-04T23:21:01.967Z,1.50
2018-01-04T23:23:29.684Z,1.57
2018-01-04T23:25:58.418Z,2.07
2018-01-04T23:28:26.189Z,1.57
2018-01-04T23:31:02.842Z,1.53
2018-01-04T23:33:32.804Z,2.10
2018-01-04T23:36:00.765Z,2.53
2018-01-04T23:38:28.792Z,2.03
2018-01-04T23:40:56.598Z,2.07
2018-01-04T23:43:24.287Z,1.80
2018-01-04T23:45:52.098Z,2.03
2018-01-04T23:48:20.939Z,1.77
2018-01-04T23:50:51.312Z,1.40
2018-01-04T23:53:20.116Z,2.57
2018-01-04T23:55:47.754Z,1.83
2018-01-04T23:58:15.475Z,1.37
